createdAt,value
2023-05-02T00:01:38.997Z,11.80
2023-05-02T00:04:09.264Z,11.80
2023-05-02T00:06:39.396Z,11.80
2023-05-02T00:09:12.131Z,11.80
2023-05-02T00:11:42.822Z,11.70
2023-05-02T00:14:12.814Z,11.80
2023-05-02T00:16:42.821Z,11.70
2023-05-02T00:19:12.784Z,11.70
2023-05-02T00:21:42.736Z,11.60
2023-05-02T00:24:15.325Z,11.60
2023-05-02T00:26:45.320Z,11.60
2023-05-02T00:29:15.273Z,11.50
2023-05-02T00:31:45.308Z,11.50
2023-05-02T00:34:15.302Z,11.50
2023-05-02T00:36:45.242Z,11.30
2023-05-02T00:39:17.785Z,11.30
2023-05-02T00:41:47.764Z,11.30
2023-05-02T00:44:18.221Z,11.30
2023-05-02T00:46:48.322Z,11.30
2023-05-02T00:49:18.327Z,11.30
2023-05-02T00:51:48.359Z,11.20
2023-05-02T00:54:20.994Z,11.20
2023-05-02T00:56:50.955Z,11.20
2023-05-02T00:59:21.159Z,11.10
2023-05-02T01:02:01.092Z,11.00
2023-05-02T01:04:44.379Z,11.10
2023-05-02T01:07:31.824Z,11.00
2023-05-02T01:10:20.682Z,11.00
2023-05-02T01:12:59.007Z,11.00
2023-05-02T01:15:29.612Z,11.00
2023-05-02T01:18:04.552Z,10.90
2023-05-02T01:20:41.418Z,11.00
2023-05-02T01:23:26.005Z,11.00
2023-05-02T01:26:16.673Z,11.00
2023-05-02T01:29:06.980Z,10.70
2023-05-02T01:31:40.731Z,10.60
2023-05-02T01:34:14.011Z,10.50
2023-05-02T01:36:47.961Z,10.50
2023-05-02T01:39:22.586Z,10.50
2023-05-02T01:41:53.673Z,10.50
2023-05-02T01:44:27.532Z,10.50
2023-05-02T01:46:59.298Z,10.40
2023-05-02T01:49:30.473Z,10.40
2023-05-02T01:52:06.114Z,10.40
2023-05-02T01:54:39.747Z,10.40
2023-05-02T01:57:11.973Z,10.40
2023-05-02T01:59:46.727Z,10.30
2023-05-02T02:02:18.796Z,10.30
2023-05-02T02:04:51.846Z,10.20
2023-05-02T02:07:21.853Z,10.20
2023-05-02T02:09:53.063Z,10.10
2023-05-02T02:12:29.846Z,10.10
2023-05-02T02:15:13.014Z,10.00
2023-05-02T02:17:46.466Z,9.90
2023-05-02T02:20:18.364Z,10.00
2023-05-02T02:22:49.951Z,10.10
2023-05-02T02:25:21.524Z,10.20
2023-05-02T02:27:52.259Z,10.10
2023-05-02T02:30:24.859Z,10.10
2023-05-02T02:32:54.908Z,10.10
2023-05-02T02:35:25.734Z,10.20
2023-05-02T02:38:06.037Z,10.20
2023-05-02T02:40:46.231Z,10.30
2023-05-02T02:43:27.061Z,10.40
2023-05-02T02:46:23.198Z,10.40
2023-05-02T02:49:01.374Z,10.40
2023-05-02T02:51:38.145Z,10.50
2023-05-02T02:54:26.500Z,10.50
2023-05-02T02:57:05.281Z,10.50
2023-05-02T02:59:38.743Z,10.70
2023-05-02T03:02:16.258Z,10.70
2023-05-02T03:04:49.964Z,10.70
2023-05-02T03:07:19.955Z,10.70
2023-05-02T03:09:51.089Z,10.70
2023-05-02T03:12:21.316Z,10.70
2023-05-02T03:14:51.420Z,10.70
2023-05-02T03:17:26.213Z,10.70
2023-05-02T03:19:57.704Z,10.70
2023-05-02T03:22:27.868Z,10.70
2023-05-02T03:24:57.840Z,10.70
2023-05-02T03:27:27.813Z,10.70
2023-05-02T03:29:57.981Z,10.70
2023-05-02T03:32:31.018Z,10.70
2023-05-02T03:35:01.082Z,10.70
2023-05-02T03:37:31.239Z,10.70
2023-05-02T03:40:01.770Z,10.70
2023-05-02T03:42:32.163Z,10.70
2023-05-02T03:45:02.166Z,10.60
2023-05-02T03:47:34.856Z,10.60
2023-05-02T03:50:04.986Z,10.60
2023-05-02T03:52:36.694Z,10.60
2023-05-02T03:55:08.277Z,10.60
2023-05-02T03:57:38.244Z,10.60
2023-05-02T04:00:10.666Z,10.60
2023-05-02T04:02:43.347Z,10.60
2023-05-02T04:05:13.470Z,10.60
2023-05-02T04:07:43.454Z,10.60
2023-05-02T04:10:16.855Z,10.50
2023-05-02T04:12:46.960Z,10.60
2023-05-02T04:15:17.198Z,10.60
2023-05-02T04:17:49.761Z,10.50
2023-05-02T04:20:20.157Z,10.60
2023-05-02T04:22:50.643Z,10.60
2023-05-02T04:25:20.708Z,10.60
2023-05-02T04:27:51.787Z,10.60
2023-05-02T04:30:22.086Z,10.60
2023-05-02T04:32:55.059Z,10.70
2023-05-02T04:35:25.137Z,10.70
2023-05-02T04:37:55.104Z,10.70
2023-05-02T04:40:25.065Z,10.70
2023-05-02T04:42:55.026Z,10.80
2023-05-02T04:45:25.023Z,10.80
2023-05-02T04:47:57.563Z,10.80
2023-05-02T04:50:28.384Z,10.80
2023-05-02T04:52:58.353Z,10.80
2023-05-02T04:55:28.384Z,10.90
2023-05-02T04:57:58.330Z,11.00
2023-05-02T05:00:28.314Z,11.10
2023-05-02T05:03:01.973Z,11.10
2023-05-02T05:05:32.148Z,11.20
2023-05-02T05:08:02.319Z,11.30
2023-05-02T05:10:32.894Z,11.30
2023-05-02T05:13:04.528Z,11.40
2023-05-02T05:15:34.579Z,11.40
2023-05-02T05:18:07.247Z,11.30
2023-05-02T05:20:37.237Z,11.40
2023-05-02T05:23:07.204Z,11.40
2023-05-02T05:25:37.153Z,11.40
2023-05-02T05:28:07.188Z,11.50
2023-05-02T05:30:37.141Z,11.60
2023-05-02T05:33:09.794Z,11.60
2023-05-02T05:35:39.755Z,11.60
2023-05-02T05:38:09.722Z,11.60
2023-05-02T05:40:39.689Z,11.70
2023-05-02T05:43:09.627Z,11.80
2023-05-02T05:45:39.718Z,11.80
2023-05-02T05:48:13.074Z,12.10
2023-05-02T05:50:43.517Z,12.20
2023-05-02T05:53:13.500Z,12.20
2023-05-02T05:55:43.683Z,12.30
2023-05-02T05:58:13.734Z,12.30
2023-05-02T06:00:44.630Z,12.30
2023-05-02T06:03:17.337Z,12.30
2023-05-02T06:05:47.399Z,12.30
2023-05-02T06:08:17.339Z,12.30
2023-05-02T06:10:47.325Z,12.50
2023-05-02T06:13:17.269Z,12.60
2023-05-02T06:15:47.216Z,12.60
2023-05-02T06:18:19.875Z,12.50
2023-05-02T06:20:49.827Z,12.70
2023-05-02T06:23:20.093Z,12.80
2023-05-02T06:25:50.038Z,13.00
2023-05-02T06:28:19.981Z,13.20
2023-05-02T06:30:49.935Z,13.00
2023-05-02T06:33:22.428Z,13.30
2023-05-02T06:35:54.944Z,13.30
2023-05-02T06:38:25.543Z,13.00
2023-05-02T06:40:55.599Z,12.90
2023-05-02T06:43:25.535Z,13.00
2023-05-02T06:45:57.774Z,13.10
2023-05-02T06:48:30.364Z,13.00
2023-05-02T06:51:00.312Z,13.00
2023-05-02T06:53:32.445Z,13.00
2023-05-02T06:56:03.429Z,13.00
2023-05-02T06:58:33.830Z,13.10
2023-05-02T07:01:03.830Z,13.20
2023-05-02T07:03:36.618Z,13.20
2023-05-02T07:06:06.946Z,13.20
2023-05-02T07:08:36.949Z,13.40
2023-05-02T07:11:07.452Z,13.40
2023-05-02T07:13:37.432Z,13.60
2023-05-02T07:16:09.206Z,13.70
2023-05-02T07:18:42.487Z,13.90
2023-05-02T07:21:12.665Z,14.00
2023-05-02T07:23:42.633Z,14.10
2023-05-02T07:26:12.609Z,14.00
2023-05-02T07:28:42.574Z,13.80
2023-05-02T07:31:12.515Z,13.80
2023-05-02T07:33:45.064Z,14.10
2023-05-02T07:36:15.015Z,14.10
2023-05-02T07:38:44.948Z,14.30
2023-05-02T07:41:17.397Z,13.80
2023-05-02T07:43:47.389Z,13.90
2023-05-02T07:46:17.458Z,13.70
2023-05-02T07:48:50.041Z,13.70
2023-05-02T07:51:21.628Z,14.00
2023-05-02T07:53:58.600Z,14.40
2023-05-02T07:56:28.725Z,14.00
2023-05-02T07:58:58.681Z,14.00
2023-05-02T08:01:28.707Z,14.10
2023-05-02T08:04:01.412Z,14.30
2023-05-02T08:06:32.940Z,13.80
2023-05-02T08:09:03.153Z,14.00
2023-05-02T08:11:33.366Z,14.00
2023-05-02T08:14:03.585Z,14.00
2023-05-02T08:16:33.602Z,14.30
2023-05-02T08:19:06.193Z,14.50
2023-05-02T08:21:36.311Z,14.10
2023-05-02T08:24:06.720Z,14.10
2023-05-02T08:26:36.700Z,13.90
2023-05-02T08:29:06.706Z,13.90
2023-05-02T08:31:36.747Z,13.90
2023-05-02T08:34:09.357Z,14.00
2023-05-02T08:36:39.884Z,14.00
2023-05-02T08:39:10.879Z,14.00
2023-05-02T08:41:41.469Z,14.00
2023-05-02T08:44:11.433Z,13.90
2023-05-02T08:46:44.828Z,13.90
2023-05-02T08:49:19.964Z,14.10
2023-05-02T08:51:53.363Z,14.10
2023-05-02T08:54:25.823Z,14.10
2023-05-02T08:56:56.626Z,14.10
2023-05-02T08:59:26.605Z,14.10
2023-05-02T09:02:03.766Z,14.20
2023-05-02T09:04:43.896Z,14.10
2023-05-02T09:07:13.975Z,14.10
2023-05-02T09:09:43.953Z,13.90
2023-05-02T09:12:13.929Z,14.00
2023-05-02T09:14:44.805Z,14.00
2023-05-02T09:17:14.795Z,14.00
2023-05-02T09:19:47.305Z,14.00
2023-05-02T09:22:26.243Z,14.10
2023-05-02T09:24:58.250Z,13.90
2023-05-02T09:27:28.821Z,14.00
2023-05-02T09:30:22.934Z,14.00
2023-05-02T09:32:55.999Z,14.00
2023-05-02T09:35:29.029Z,14.10
2023-05-02T09:38:00.930Z,14.20
2023-05-02T09:40:32.912Z,14.10
2023-05-02T09:43:03.454Z,14.10
2023-05-02T09:45:33.687Z,14.10
2023-05-02T09:48:05.835Z,14.10
2023-05-02T09:50:40.131Z,14.10
2023-05-02T09:53:12.056Z,14.30
2023-05-02T09:55:42.280Z,14.60
2023-05-02T09:58:25.768Z,15.10
2023-05-02T10:00:55.734Z,15.00
2023-05-02T10:03:28.170Z,14.80
2023-05-02T10:06:01.598Z,14.60
2023-05-02T10:08:32.063Z,14.30
2023-05-02T10:11:03.702Z,14.20
2023-05-02T10:13:37.422Z,14.30
2023-05-02T10:16:09.847Z,14.40
2023-05-02T10:18:46.008Z,14.40
2023-05-02T10:21:23.305Z,14.30
2023-05-02T10:23:53.604Z,14.30
2023-05-02T10:26:25.033Z,14.20
2023-05-02T10:28:56.806Z,14.30
2023-05-02T10:31:27.381Z,14.20
2023-05-02T10:33:59.005Z,14.20
2023-05-02T10:36:33.723Z,14.40
2023-05-02T10:39:05.500Z,14.30
2023-05-02T10:41:37.670Z,14.40
2023-05-02T10:44:09.657Z,14.50
2023-05-02T10:46:41.485Z,14.70
2023-05-02T10:49:12.912Z,14.70
2023-05-02T10:51:46.438Z,14.80
2023-05-02T10:54:27.188Z,14.50
2023-05-02T10:57:11.344Z,14.30
2023-05-02T10:59:42.956Z,14.20
2023-05-02T11:02:52.125Z,14.10
2023-05-02T11:05:22.240Z,14.10
2023-05-02T11:08:33.349Z,14.00
2023-05-02T11:11:42.887Z,13.90
2023-05-02T11:14:15.718Z,13.80
2023-05-02T11:17:13.970Z,13.80
2023-05-02T11:20:32.522Z,13.90
2023-05-02T11:23:26.337Z,13.90
2023-05-02T11:26:00.639Z,13.60
2023-05-02T11:28:48.474Z,13.60
2023-05-02T11:32:06.784Z,13.60
2023-05-02T11:34:47.324Z,13.60
2023-05-02T11:37:18.265Z,13.60
2023-05-02T11:39:51.712Z,13.40
2023-05-02T11:42:36.984Z,13.00
2023-05-02T11:45:08.447Z,13.30
2023-05-02T11:47:38.468Z,13.10
2023-05-02T11:50:10.169Z,13.10
2023-05-02T11:52:41.766Z,12.90
2023-05-02T11:55:16.509Z,13.00
2023-05-02T11:57:46.625Z,13.10
2023-05-02T12:00:18.592Z,13.10
2023-05-02T12:02:49.983Z,13.20
2023-05-02T12:05:32.258Z,13.00
2023-05-02T12:08:02.715Z,12.90
2023-05-02T12:10:42.042Z,12.70
2023-05-02T12:13:12.523Z,12.80
2023-05-02T12:15:42.789Z,12.60
2023-05-02T12:18:13.130Z,12.70
2023-05-02T12:20:43.927Z,12.80
2023-05-02T12:23:14.903Z,12.80
2023-05-02T12:25:47.500Z,12.70
2023-05-02T12:28:20.046Z,12.80
2023-05-02T12:30:52.368Z,13.00
2023-05-02T12:33:22.410Z,12.70
2023-05-02T12:35:54.134Z,12.60
2023-05-02T12:38:25.912Z,12.60
2023-05-02T12:40:59.391Z,12.70
2023-05-02T12:43:29.346Z,12.90
2023-05-02T12:46:13.263Z,12.80
2023-05-02T12:48:44.956Z,12.60
2023-05-02T12:51:28.797Z,12.50
2023-05-02T12:53:58.893Z,12.50
2023-05-02T12:56:32.926Z,12.60
2023-05-02T12:59:05.399Z,12.40
2023-05-02T13:01:36.860Z,12.30
2023-05-02T13:04:07.568Z,12.30
2023-05-02T13:06:38.282Z,12.40
2023-05-02T13:09:08.484Z,12.60
2023-05-02T13:11:42.698Z,12.60
2023-05-02T13:14:12.671Z,12.50
2023-05-02T13:16:42.744Z,12.50
2023-05-02T13:19:12.792Z,12.70
2023-05-02T13:21:42.769Z,12.60
2023-05-02T13:24:13.347Z,12.50
2023-05-02T13:26:45.907Z,12.50
2023-05-02T13:29:15.857Z,12.60
2023-05-02T13:31:45.957Z,12.40
2023-05-02T13:34:15.919Z,12.40
2023-05-02T13:36:46.727Z,12.80
2023-05-02T13:39:16.742Z,13.00
2023-05-02T13:41:49.389Z,13.30
2023-05-02T13:44:19.328Z,13.70
2023-05-02T13:46:49.368Z,13.40
2023-05-02T13:49:19.424Z,12.90
2023-05-02T13:51:50.265Z,12.90
2023-05-02T13:54:20.241Z,13.10
2023-05-02T13:56:52.783Z,13.10
2023-05-02T13:59:22.769Z,13.30
2023-05-02T14:01:52.824Z,12.80
2023-05-02T14:04:23.645Z,12.50
2023-05-02T14:06:53.927Z,12.50
2023-05-02T14:09:24.159Z,12.60
2023-05-02T14:11:56.743Z,12.60
2023-05-02T14:14:26.674Z,12.80
2023-05-02T14:16:56.624Z,12.60
2023-05-02T14:19:26.573Z,12.80
2023-05-02T14:21:56.510Z,12.60
2023-05-02T14:24:26.524Z,12.40
2023-05-02T14:26:59.393Z,12.50
2023-05-02T14:29:32.065Z,12.20
2023-05-02T14:32:02.049Z,12.00
2023-05-02T14:34:32.042Z,12.10
2023-05-02T14:37:02.131Z,12.10
2023-05-02T14:39:32.233Z,11.90
2023-05-02T14:42:05.093Z,11.90
2023-05-02T14:44:35.288Z,12.00
2023-05-02T14:47:05.318Z,12.10
2023-05-02T14:49:35.385Z,11.90
2023-05-02T14:52:05.423Z,11.70
2023-05-02T14:54:36.105Z,11.60
2023-05-02T14:57:09.299Z,11.70
2023-05-02T14:59:39.709Z,11.90
2023-05-02T15:02:10.664Z,11.70
2023-05-02T15:04:41.066Z,11.70
2023-05-02T15:07:11.394Z,11.30
2023-05-02T15:09:41.447Z,11.30
2023-05-02T15:12:13.990Z,11.30
2023-05-02T15:14:43.972Z,11.30
2023-05-02T15:17:13.998Z,11.30
2023-05-02T15:19:44.017Z,11.20
2023-05-02T15:22:15.992Z,11.10
2023-05-02T15:24:46.062Z,11.20
2023-05-02T15:27:18.583Z,11.00
2023-05-02T15:29:48.516Z,11.00
2023-05-02T15:32:18.506Z,10.90
2023-05-02T15:34:48.717Z,10.90
2023-05-02T15:37:18.706Z,10.90
2023-05-02T15:39:50.724Z,10.80
2023-05-02T15:42:23.283Z,10.60
2023-05-02T15:44:54.171Z,10.50
2023-05-02T15:47:25.175Z,10.60
2023-05-02T15:49:55.490Z,10.60
2023-05-02T15:52:25.457Z,10.60
2023-05-02T15:54:56.273Z,10.70
2023-05-02T15:57:28.925Z,10.50
2023-05-02T15:59:58.959Z,10.50
2023-05-02T16:02:28.975Z,10.60
2023-05-02T16:04:58.911Z,10.60
2023-05-02T16:07:28.923Z,10.70
2023-05-02T16:09:58.908Z,10.60
2023-05-02T16:12:31.537Z,10.70
2023-05-02T16:15:03.653Z,10.70
2023-05-02T16:17:33.997Z,10.60
2023-05-02T16:20:04.190Z,10.50
2023-05-02T16:22:38.991Z,10.40
2023-05-02T16:25:10.107Z,10.50
2023-05-02T16:27:42.981Z,10.60
2023-05-02T16:30:14.106Z,10.60
2023-05-02T16:32:44.112Z,10.60
2023-05-02T16:35:15.160Z,10.60
2023-05-02T16:37:45.196Z,10.60
2023-05-02T16:40:16.092Z,10.60
2023-05-02T16:42:48.658Z,10.50
2023-05-02T16:45:18.721Z,10.60
2023-05-02T16:47:48.738Z,10.60
2023-05-02T16:50:18.736Z,10.50
2023-05-02T16:52:48.930Z,10.70
2023-05-02T16:55:19.170Z,10.80
2023-05-02T16:57:51.722Z,10.80
2023-05-02T17:00:22.750Z,10.70
2023-05-02T17:02:57.100Z,10.70
2023-05-02T17:05:27.217Z,10.70
2023-05-02T17:07:57.244Z,10.80
2023-05-02T17:10:27.228Z,10.80
2023-05-02T17:12:59.891Z,10.70
2023-05-02T17:15:29.843Z,10.70
2023-05-02T17:17:59.802Z,10.60
2023-05-02T17:20:29.819Z,10.60
2023-05-02T17:23:00.608Z,10.70
2023-05-02T17:25:30.670Z,10.70
2023-05-02T17:28:03.308Z,10.60
2023-05-02T17:30:34.130Z,10.70
2023-05-02T17:33:04.202Z,10.70
2023-05-02T17:35:36.997Z,10.60
2023-05-02T17:38:06.973Z,10.60
2023-05-02T17:40:38.100Z,10.50
2023-05-02T17:43:11.207Z,10.60
2023-05-02T17:45:41.944Z,10.60
2023-05-02T17:48:11.997Z,10.60
2023-05-02T17:50:42.947Z,10.50
2023-05-02T17:53:12.967Z,10.50
2023-05-02T17:55:42.931Z,10.60
2023-05-02T17:58:16.062Z,10.60
2023-05-02T18:00:46.465Z,10.60
2023-05-02T18:03:16.834Z,10.60
2023-05-02T18:05:47.933Z,10.60
2023-05-02T18:08:18.126Z,10.60
2023-05-02T18:10:48.213Z,10.60
2023-05-02T18:13:20.749Z,10.60
2023-05-02T18:15:58.878Z,10.60
2023-05-02T18:18:28.881Z,10.60
2023-05-02T18:20:58.898Z,10.50
2023-05-02T18:23:28.897Z,10.50
2023-05-02T18:25:58.865Z,10.50
2023-05-02T18:28:31.408Z,10.50
2023-05-02T18:31:01.398Z,10.40
2023-05-02T18:33:31.403Z,10.40
2023-05-02T18:36:01.409Z,10.40
2023-05-02T18:38:32.154Z,10.40
2023-05-02T18:41:02.121Z,10.30
2023-05-02T18:43:36.396Z,10.30
2023-05-02T18:46:06.589Z,10.20
2023-05-02T18:48:37.069Z,10.10
2023-05-02T18:51:07.487Z,10.20
2023-05-02T18:53:37.491Z,10.30
2023-05-02T18:56:14.891Z,10.30
2023-05-02T18:58:47.697Z,10.30
2023-05-02T19:01:20.329Z,10.30
2023-05-02T19:03:50.555Z,10.20
2023-05-02T19:06:20.891Z,10.30
2023-05-02T19:08:51.802Z,10.20
2023-05-02T19:11:22.894Z,10.20
2023-05-02T19:13:56.902Z,10.20
2023-05-02T19:16:27.801Z,10.20
2023-05-02T19:18:57.882Z,10.20
2023-05-02T19:21:28.152Z,10.20
2023-05-02T19:23:58.173Z,10.20
2023-05-02T19:26:29.176Z,10.10
2023-05-02T19:29:01.727Z,10.10
2023-05-02T19:31:31.783Z,10.10
2023-05-02T19:34:01.776Z,10.10
2023-05-02T19:36:32.188Z,10.10
2023-05-02T19:39:02.210Z,10.10
2023-05-02T19:41:32.231Z,10.10
2023-05-02T19:44:04.939Z,10.10
2023-05-02T19:46:35.033Z,10.00
2023-05-02T19:49:05.031Z,10.00
2023-05-02T19:51:35.493Z,9.90
2023-05-02T19:54:05.561Z,9.90
2023-05-02T19:56:35.527Z,10.00
2023-05-02T19:59:08.051Z,10.00
2023-05-02T20:01:38.250Z,10.00
2023-05-02T20:04:08.478Z,10.00
2023-05-02T20:06:38.520Z,10.00
2023-05-02T20:09:08.523Z,9.90
2023-05-02T20:11:38.512Z,9.90
2023-05-02T20:14:11.203Z,9.90
2023-05-02T20:16:41.245Z,9.90
2023-05-02T20:19:11.244Z,9.90
2023-05-02T20:21:41.435Z,10.00
2023-05-02T20:24:11.919Z,10.00
2023-05-02T20:26:42.047Z,10.00
2023-05-02T20:29:14.754Z,10.00
2023-05-02T20:31:44.810Z,10.00
2023-05-02T20:34:14.840Z,9.80
2023-05-02T20:36:44.859Z,9.80
2023-05-02T20:39:16.096Z,9.90
2023-05-02T20:41:46.514Z,9.90
2023-05-02T20:44:22.575Z,9.90
2023-05-02T20:46:52.844Z,9.90
2023-05-02T20:49:22.829Z,9.90
2023-05-02T20:51:52.997Z,9.90
2023-05-02T20:54:22.925Z,9.90
2023-05-02T20:56:52.955Z,10.00
2023-05-02T20:59:25.659Z,10.00
2023-05-02T21:01:55.690Z,10.00
2023-05-02T21:04:25.738Z,10.00
2023-05-02T21:06:56.945Z,10.00
2023-05-02T21:09:27.324Z,10.00
2023-05-02T21:11:57.311Z,10.00
2023-05-02T21:14:29.853Z,10.00
2023-05-02T21:16:59.809Z,10.00
2023-05-02T21:19:33.114Z,10.00
2023-05-02T21:22:03.279Z,9.90
2023-05-02T21:24:33.345Z,10.00
2023-05-02T21:27:03.712Z,9.90
2023-05-02T21:29:36.382Z,10.00
2023-05-02T21:32:06.944Z,10.00
2023-05-02T21:34:37.056Z,10.00
2023-05-02T21:37:07.112Z,10.00
2023-05-02T21:39:37.085Z,10.00
2023-05-02T21:42:07.675Z,9.90
2023-05-02T21:44:40.205Z,9.80
2023-05-02T21:47:10.289Z,9.90
2023-05-02T21:49:40.290Z,9.80
2023-05-02T21:52:10.388Z,9.80
2023-05-02T21:54:40.429Z,9.80
2023-05-02T21:57:10.360Z,9.80
2023-05-02T21:59:43.047Z,9.80
2023-05-02T22:02:13.163Z,9.80
2023-05-02T22:04:47.138Z,9.80
2023-05-02T22:07:17.193Z,9.70
2023-05-02T22:09:47.448Z,9.70
2023-05-02T22:12:17.504Z,9.70
2023-05-02T22:14:50.371Z,9.70
2023-05-02T22:17:22.915Z,9.60
2023-05-02T22:19:53.667Z,9.60
2023-05-02T22:22:23.705Z,9.60
2023-05-02T22:24:53.688Z,9.50
2023-05-02T22:27:23.675Z,9.50
2023-05-02T22:29:56.412Z,9.50
2023-05-02T22:32:27.021Z,9.50
2023-05-02T22:34:57.023Z,9.50
2023-05-02T22:37:27.302Z,9.50
2023-05-02T22:39:57.275Z,9.40
2023-05-02T22:42:27.474Z,9.40
2023-05-02T22:45:00.020Z,9.40
2023-05-02T22:47:30.233Z,9.50
2023-05-02T22:50:00.691Z,9.40
2023-05-02T22:52:30.862Z,9.40
2023-05-02T22:55:01.043Z,9.40
2023-05-02T22:57:31.017Z,9.40
2023-05-02T23:00:05.367Z,9.40
2023-05-02T23:02:35.632Z,9.40
2023-05-02T23:05:06.629Z,9.40
2023-05-02T23:07:36.736Z,9.30
2023-05-02T23:10:07.621Z,9.30
2023-05-02T23:12:37.645Z,9.30
2023-05-02T23:15:12.724Z,9.30
2023-05-02T23:17:42.920Z,9.30
2023-05-02T23:20:14.165Z,9.30
2023-05-02T23:22:48.380Z,9.30
2023-05-02T23:25:18.695Z,9.30
2023-05-02T23:27:48.983Z,9.30
2023-05-02T23:30:21.825Z,9.20
2023-05-02T23:32:51.892Z,9.20
2023-05-02T23:35:22.009Z,9.20
2023-05-02T23:37:52.772Z,9.20
2023-05-02T23:40:23.015Z,9.20
2023-05-02T23:42:52.998Z,9.20
2023-05-02T23:45:25.661Z,9.30
2023-05-02T23:47:55.919Z,9.20
2023-05-02T23:50:25.949Z,9.20
2023-05-02T23:52:55.973Z,9.20
2023-05-02T23:55:25.960Z,9.20
2023-05-02T23:57:56.038Z,9.20
